• Join FlightAware (Why Join?)
  • Login
  • US Flag 
10:20PM EST


 

Airport Tracker/Info


-or-


 

Live Flight TrackerFlight Track Log ✈ ASQ5176 ✈ 01-Jul-2013 ✈ KAEX - KATL

Flight Track Log - Related Links

Times and Time Zones

All times are in EDT time to prevent confusion due to time zone crossing. See the ASQ5176 flight status page for this flight to view local times or setup timezone preferences in your user account.

Time Position Orientation Groundspeed Altitude Reporting Facility
EDT Latitude Longitude Course Direction KTS MPH feet Rate Location/Type
04:21PM 31.3647 -92.5536 90° East 185 213 2,100  Level Houston Center
04:22PM 31.3711 -92.4756 85° East 260 299 4,400 2,700 Climbing Houston Center
04:23PM 31.3686 -92.3844 92° East 276 318 7,800 2,700 Climbing Houston Center
04:24PM 31.3658 -92.2686 92° East 293 337 10,000 1,860 Climbing Houston Center
04:25PM 31.3633 -92.1497 91° East 354 407 11,700 1,620 Climbing Houston Center
04:26PM 31.2667 -91.7599 90° East  Level FlightAware Approximate
04:27PM 31.4236 -91.9680 90° East  Level Estimated
04:27PM 31.3569 -91.9094 90° East 375 432 15,200  Level Houston Center
04:28PM 31.3539 -91.7831 92° East 386 444 16,500 1,320 Climbing Houston Center
04:29PM 31.3500 -91.6536 92° East 396 456 18,000 1,260 Climbing Houston Center
04:30PM 31.3450 -91.4947 92° East 406 467 19,200 1,080 Climbing Houston Center
04:31PM 31.3414 -91.3581 92° East 419 482 20,300 900 Climbing Houston Center
04:32PM 31.3375 -91.2194 92° East 425 489 21,100 720 Climbing Houston Center
04:33PM 31.3339 -91.0858 92° East 434 499 21,900 780 Climbing Houston Center
04:34PM 31.3281 -90.9439 93° East 438 504 22,800 960 Climbing Houston Center
04:35PM 31.3222 -90.7681 92° East 450 518 23,900 780 Climbing Houston Center
04:36PM 31.3169 -90.6211 92° East 452 520 24,500 600 Climbing Houston Center
04:37PM 31.3114 -90.4711 92° East 461 531 25,200 600 Climbing Houston Center
04:38PM 31.3064 -90.3206 92° East 463 533 25,800 480 Climbing Houston Center
04:39PM 31.2942 -90.1683 95° East 469 540 26,300 540 Climbing Houston Center
04:40PM 31.2772 -90.0167 97° East 470 541 27,000 300 Climbing Houston Center
04:41PM 31.2564 -89.8322 97° East 476 548 27,000  Level Houston Center
04:42PM 31.1911 -89.6950 119° Southeast 479 551 27,000  Level Houston Center
04:43PM 31.1228 -89.5589 120° Southeast 484 557 27,000  Level Houston Center
04:45PM 31.0536 -89.4228 121° Southeast 485 558 27,000  Level Houston Center
04:46PM 30.9858 -89.2875 120° Southeast 483 556 27,000  Level Houston Center
04:47PM 30.9156 -89.1489 121° Southeast 493 567 27,000  Level Houston Center
04:48PM 30.8489 -89.0128 120° Southeast 486 559 27,000  Level Houston Center
04:49PM 30.8228 -88.8500 101° East 499 574 27,000  Level Houston Center
04:50PM 30.8264 -88.6922 88° East 492 566 27,000  Level Houston Center
04:51PM 30.8331 -88.5108 88° East 495 570 27,000  Level Houston Center
04:52PM 30.8386 -88.3508 88° East 495 570 27,000  Level Houston Center
04:53PM 30.9136 -88.2239 55° Northeast 495 570 27,000  Level Houston Center
04:54PM 31.0358 -88.1486 28° Northeast 496 571 27,000  Level Houston Center
04:55PM 31.1808 -88.0606 27° Northeast 490 564 27,000  Level Houston Center
04:56PM 31.2997 -87.9911 27° Northeast 494 568 27,000  Level Houston Center
04:57PM 31.4122 -87.8997 35° Northeast 509 586 27,000  Level Houston Center
04:58PM 31.4947 -87.7694 53° Northeast 502 578 27,000  Level Houston Center
04:59PM 31.5789 -87.6375 53° Northeast 505 581 27,000  Level Houston Center
05:00PM 31.6342 -87.5511 53° Northeast 495 570 27,000  Level Atlanta Center
05:01PM 31.7150 -87.4225 54° Northeast 500 575 27,000  Level Atlanta Center
05:02PM 31.8044 -87.2719 55° Northeast 500 575 27,000  Level Atlanta Center
05:03PM 31.8872 -87.1353 54° Northeast 505 581 27,000  Level Atlanta Center
05:04PM 31.9700 -87.0011 54° Northeast 505 581 27,000  Level Atlanta Center
05:05PM 32.0522 -86.8692 54° Northeast 505 581 27,000  Level Atlanta Center
05:06PM 32.1367 -86.7319 54° Northeast 505 581 27,000  Level Atlanta Center
05:07PM 32.2164 -86.6142 51° Northeast 510 587 27,000  Level Atlanta Center
05:08PM 32.3008 -86.4739 55° Northeast 515 593 27,000  Level Atlanta Center
05:10PM 32.4583 -86.1928 56° Northeast 515 593 27,000  Level Atlanta Center
05:11PM 32.5483 -86.0544 52° Northeast 514 592 27,000  Level Atlanta Center
05:12PM 32.6319 -85.9108 55° Northeast 519 597 27,000  Level Atlanta Center
05:13PM 32.7156 -85.7719 54° Northeast 519 597 27,000 -300 Level Atlanta Center
05:14PM 32.7967 -85.6303 56° Northeast 514 592 26,500 -1,680 Descending Atlanta Center
05:15PM 32.8778 -85.4956 54° Northeast 514 592 23,700 -2,760 Descending Atlanta Center
05:16PM 32.9542 -85.3681 54° Northeast 494 568 21,000 -2,700 Descending Atlanta Center
05:17PM 33.0264 -85.2431 55° Northeast 472 543 18,300 -2,820 Descending Atlanta Center
05:18PM 33.1069 -85.1325 49° Northeast 450 518 15,400 -2,160 Descending Atlanta Center
05:19PM 33.1850 -85.0317 47° Northeast 417 480 14,000 -1,620 Descending Atlanta Center
05:20PM 33.2650 -84.9208 49° Northeast 406 467 12,200 -1,020 Descending Atlanta Center
05:21PM 33.3408 -84.8197 48° Northeast 401 461 12,000 -120 Descending Atlanta Center
05:22PM 33.4083 -84.7306 48° Northeast 384 442 12,000  Level Atlanta Center
05:23PM 33.4608 -84.6614 48° Northeast 314 361 12,000  Level Atlanta Center
05:24PM 33.5092 -84.5969 48° Northeast 266 306 12,000 -600 Level Atlanta Center
05:25PM 33.5450 -84.5200 61° Northeast 260 299 10,800 -1,200 Descending Atlanta Center
05:26PM 33.5453 -84.4325 90° East 247 284 9,700 -2,040 Descending Atlanta Center
05:27PM 33.5500 -84.3500 86° East 238 274 6,600 -2,940 Descending Atlanta TRACON
05:28PM 33.5500 -84.2667 90° East 246 283 3,600 -1,800 Descending Atlanta TRACON
05:29PM 33.6167 -84.2833 348° North 227 261 3,000 -720 Descending Atlanta TRACON
05:30PM 33.6167 -84.3500 270° West 167 192 2,200 -840 Descending Atlanta TRACON
05:31PM 33.6167 -84.4000 270° West 149 171 1,400 -840 Descending Atlanta TRACON
05:33PM 33.6333 -84.4167 292° West  Level FlightAware Approximate
05:40PM 33.6367 -84.4279 292° West  Level Estimated